Time;durP1;ratioP1;P1;durP2;ratioP2;P2;SDS_P1;SDS_P2;PMS_P1;PMS_P2;Temp;Humidity;BMP_temperature;BMP_pressure;BME280_temperature;BME280_humidity;BME280_pressure;Samples;Min_cycle;Max_cycle;Signal;HPM_P1;HPM_P2
2022/04/08 00:01:23;;;;;;;1.27;1.17;;;;;;;;;;5056438;28;20310;-66
2022/04/08 00:03:49;;;;;;;1.88;1.40;;;;;;;;;;5056673;28;20405;-67
2022/04/08 00:06:17;;;;;;;1.10;1.00;;;;;;;;;;5058170;28;20075;-66
2022/04/08 00:08:44;;;;;;;1.65;1.15;;;;;;;;;;5059666;28;20087;-66
2022/04/08 00:11:11;;;;;;;1.33;1.20;;;;;;;;;;5059253;28;20079;-66
2022/04/08 00:13:38;;;;;;;0.93;0.80;;;;;;;;;;5058256;28;20131;-66
2022/04/08 00:16:07;;;;;;;1.27;1.17;;;;;;;;;;5057873;28;20080;-66
2022/04/08 00:18:34;;;;;;;3.15;1.60;;;;;;;;;;5061811;28;20084;-66
2022/04/08 00:21:01;;;;;;;1.33;1.00;;;;;;;;;;5064580;28;20768;-66
2022/04/08 00:23:27;;;;;;;1.45;1.20;;;;;;;;;;5065278;28;20479;-66
2022/04/08 00:25:54;;;;;;;0.50;0.50;;;;;;;;;;5062472;28;20093;-66
2022/04/08 00:28:21;;;;;;;1.47;1.03;;;;;;;;;;5064297;28;20127;-67
2022/04/08 00:30:48;;;;;;;1.98;1.20;;;;;;;;;;5061419;28;20128;-66
2022/04/08 00:33:15;;;;;;;1.27;1.17;;;;;;;;;;5066367;28;20071;-67
2022/04/08 00:35:42;;;;;;;1.38;1.20;;;;;;;;;;5060098;28;20128;-66
2022/04/08 00:38:09;;;;;;;1.40;1.20;;;;;;;;;;5060959;28;20150;-66
2022/04/08 00:40:35;;;;;;;1.83;1.38;;;;;;;;;;5062112;28;20123;-66
2022/04/08 00:43:15;;;;;;;1.60;1.08;;;;;;;;;;5060913;28;20651;-66
2022/04/08 00:45:41;;;;;;;2.78;1.42;;;;;;;;;;5061223;28;20504;-66
2022/04/08 00:48:08;;;;;;;3.88;1.95;;;;;;;;;;5062701;28;20050;-66
2022/04/08 00:50:38;;;;;;;1.42;1.30;;;;;;;;;;5063017;28;20635;-67
2022/04/08 00:53:06;;;;;;;1.60;1.17;;;;;;;;;;5060368;28;20128;-66
2022/04/08 00:55:36;;;;;;;3.28;1.25;;;;;;;;;;5061979;28;20135;-67
2022/04/08 00:58:03;;;;;;;1.48;1.10;;;;;;;;;;5062166;28;20136;-67
2022/04/08 01:00:34;;;;;;;1.60;1.50;;;;;;;;;;5063186;28;20088;-66
2022/04/08 01:03:01;;;;;;;2.38;1.20;;;;;;;;;;5061824;28;20091;-66
2022/04/08 01:05:28;;;;;;;1.15;1.05;;;;;;;;;;5062799;28;20076;-67
2022/04/08 01:07:55;;;;;;;1.30;1.20;;;;;;;;;;5057200;28;20132;-67
2022/04/08 01:10:22;;;;;;;1.17;1.08;;;;;;;;;;5062982;28;20094;-67
2022/04/08 01:12:49;;;;;;;1.95;1.75;;;;;;;;;;5064086;28;20087;-67
2022/04/08 01:15:16;;;;;;;;;;;;;;;;;;5061201;28;20531;-67
2022/04/08 01:17:42;;;;;;;2.05;1.67;;;;;;;;;;5062113;28;19959;-67
2022/04/08 01:20:09;;;;;;;3.33;1.67;;;;;;;;;;5060909;28;20488;-67
2022/04/08 01:22:37;;;;;;;2.40;1.58;;;;;;;;;;5048970;28;20068;-67
2022/04/08 01:25:05;;;;;;;2.10;1.60;;;;;;;;;;5064902;28;20479;-67
2022/04/08 01:27:32;;;;;;;2.15;1.35;;;;;;;;;;5061765;28;20463;-67
2022/04/08 01:30:06;;;;;;;3.45;1.35;;;;;;;;;;5057181;28;20124;-67
2022/04/08 01:32:32;;;;;;;;;;;;;;;;;;5061947;28;20416;-67
2022/04/08 01:34:58;;;;;;;1.45;1.35;;;;;;;;;;5062730;28;20019;-67
2022/04/08 01:37:25;;;;;;;2.60;1.70;;;;;;;;;;5059527;28;20055;-67
2022/04/08 01:39:51;;;;;;;2.42;1.40;;;;;;;;;;5061795;28;20331;-67
2022/04/08 01:42:22;;;;;;;1.83;1.42;;;;;;;;;;5062039;28;20148;-67
2022/04/08 01:44:49;;;;;;;1.75;1.40;;;;;;;;;;5063181;28;20093;-67
2022/04/08 01:47:16;;;;;;;1.73;1.20;;;;;;;;;;5059357;28;20127;-67
2022/04/08 01:49:42;;;;;;;2.03;1.35;;;;;;;;;;5058150;28;20803;-66
2022/04/08 01:52:09;;;;;;;1.75;1.50;;;;;;;;;;5039101;28;20081;-67
2022/04/08 01:54:36;;;;;;;1.50;1.35;;;;;;;;;;5039732;28;20144;-67
2022/04/08 01:57:02;;;;;;;1.90;1.60;;;;;;;;;;5039169;28;20136;-67
2022/04/08 01:59:29;;;;;;;4.00;1.63;;;;;;;;;;5037601;28;20121;-67
2022/04/08 02:02:02;;;;;;;3.08;1.48;;;;;;;;;;5025551;28;20080;-67
2022/04/08 02:04:29;;;;;;;3.78;1.70;;;;;;;;;;5045246;28;20045;-67
2022/04/08 02:06:55;;;;;;;2.03;1.25;;;;;;;;;;5039071;28;20084;-67
2022/04/08 02:09:23;;;;;;;2.60;1.63;;;;;;;;;;5025899;28;20524;-67
2022/04/08 02:11:50;;;;;;;2.20;1.63;;;;;;;;;;5042926;28;20088;-67
2022/04/08 02:14:17;;;;;;;2.63;1.83;;;;;;;;;;5041974;28;20394;-67
2022/04/08 02:16:50;;;;;;;5.75;3.00;;;;;;;;;;5040614;28;20124;-67
2022/04/08 02:19:17;;;;;;;3.15;1.80;;;;;;;;;;5039745;28;20128;-67
2022/04/08 02:21:44;;;;;;;2.60;1.88;;;;;;;;;;5042167;28;20454;-67
2022/04/08 02:24:13;;;;;;;2.47;1.80;;;;;;;;;;5041493;28;20088;-68
2022/04/08 02:26:40;;;;;;;3.72;1.60;;;;;;;;;;5037280;28;20045;-67
2022/04/08 02:29:07;;;;;;;3.70;1.80;;;;;;;;;;5044411;28;20100;-67
2022/04/08 02:31:33;;;;;;;3.25;1.80;;;;;;;;;;5038675;28;20073;-67
2022/04/08 02:34:00;;;;;;;2.78;1.70;;;;;;;;;;5040002;28;20057;-67
2022/04/08 02:36:26;;;;;;;2.67;1.90;;;;;;;;;;5044292;28;20779;-67
2022/04/08 02:38:56;;;;;;;3.00;1.90;;;;;;;;;;5041865;28;20473;-68
2022/04/08 02:41:23;;;;;;;2.47;1.70;;;;;;;;;;5038769;28;20120;-67
2022/04/08 02:43:49;;;;;;;6.35;1.73;;;;;;;;;;5038529;28;20452;-67
2022/04/08 02:46:25;;;;;;;3.63;1.77;;;;;;;;;;5040521;28;20128;-67
2022/04/08 02:48:52;;;;;;;3.35;1.63;;;;;;;;;;5043792;28;20522;-67
2022/04/08 02:51:18;;;;;;;5.55;1.80;;;;;;;;;;5038985;28;20151;-67
2022/04/08 02:53:45;;;;;;;2.13;1.37;;;;;;;;;;5040818;28;20129;-67
2022/04/08 02:56:12;;;;;;;1.50;1.40;;;;;;;;;;5040827;28;20378;-67
2022/04/08 02:58:38;;;;;;;1.95;1.75;;;;;;;;;;5039871;28;20398;-67
2022/04/08 03:01:05;;;;;;;1.48;1.38;;;;;;;;;;5034980;28;20144;-68
2022/04/08 03:03:32;;;;;;;2.20;1.67;;;;;;;;;;5038047;28;20095;-67
2022/04/08 03:05:59;;;;;;;2.55;1.65;;;;;;;;;;5040003;28;20155;-68
2022/04/08 03:08:25;;;;;;;2.00;1.50;;;;;;;;;;5040736;28;20132;-67
2022/04/08 03:10:52;;;;;;;2.65;2.00;;;;;;;;;;5038859;28;20092;-68
2022/04/08 03:13:19;;;;;;;1.88;1.35;;;;;;;;;;5040466;28;20140;-68
2022/04/08 03:15:48;;;;;;;7.03;2.25;;;;;;;;;;5039174;28;20059;-68
2022/04/08 03:18:14;;;;;;;3.55;1.77;;;;;;;;;;5038331;28;20052;-68
2022/04/08 03:20:41;;;;;;;2.60;1.95;;;;;;;;;;5039509;28;20132;-69
2022/04/08 03:23:15;;;;;;;2.22;1.80;;;;;;;;;;5039535;28;20081;-69
2022/04/08 03:25:41;;;;;;;3.15;1.90;;;;;;;;;;5039274;28;20110;-69
2022/04/08 03:28:09;;;;;;;2.35;1.90;;;;;;;;;;5043644;28;20469;-69
2022/04/08 03:30:41;;;;;;;3.30;2.30;;;;;;;;;;5029620;28;20136;-70
2022/04/08 03:33:08;;;;;;;2.63;1.90;;;;;;;;;;5033729;28;20519;-70
2022/04/08 03:35:35;;;;;;;2.08;1.83;;;;;;;;;;5039835;28;20095;-70
2022/04/08 03:38:02;;;;;;;2.75;1.90;;;;;;;;;;5023305;28;20049;-70
2022/04/08 03:40:29;;;;;;;3.72;1.60;;;;;;;;;;5042652;28;20041;-70
2022/04/08 03:42:55;;;;;;;4.55;1.90;;;;;;;;;;5039969;28;20143;-70
2022/04/08 03:45:24;;;;;;;3.15;2.08;;;;;;;;;;5036996;28;20140;-70
2022/04/08 03:47:51;;;;;;;2.63;2.10;;;;;;;;;;5042403;28;20641;-70
2022/04/08 03:50:18;;;;;;;2.90;2.20;;;;;;;;;;5042725;28;20520;-70
2022/04/08 03:52:44;;;;;;;2.10;1.75;;;;;;;;;;5057661;28;20075;-70
2022/04/08 03:55:11;;;;;;;2.70;2.00;;;;;;;;;;5061261;28;20525;-70
2022/04/08 03:57:37;;;;;;;5.25;1.90;;;;;;;;;;5060731;28;20357;-70
2022/04/08 04:00:04;;;;;;;4.40;2.13;;;;;;;;;;5057967;28;20091;-70
2022/04/08 04:02:31;;;;;;;;;;;;;;;;;;5059377;28;20440;-70
2022/04/08 04:04:59;;;;;;;3.03;1.95;;;;;;;;;;5060702;28;19924;-70
2022/04/08 04:07:26;;;;;;;3.50;1.92;;;;;;;;;;5057176;28;20049;-70
2022/04/08 04:09:53;;;;;;;3.00;1.90;;;;;;;;;;5058494;28;20500;-70
2022/04/08 04:12:19;;;;;;;5.15;2.17;;;;;;;;;;5058770;28;20140;-70
2022/04/08 04:14:46;;;;;;;4.60;2.08;;;;;;;;;;5058862;28;20127;-70
2022/04/08 04:17:13;;;;;;;6.90;1.85;;;;;;;;;;5065631;28;20151;-71
2022/04/08 04:19:39;;;;;;;5.75;2.38;;;;;;;;;;5060347;28;20124;-70
2022/04/08 04:22:06;;;;;;;3.17;2.30;;;;;;;;;;5059738;28;20135;-70
2022/04/08 04:24:33;;;;;;;8.23;2.85;;;;;;;;;;5059553;28;20136;-70
2022/04/08 04:27:00;;;;;;;6.93;2.30;;;;;;;;;;5056211;28;20139;-70
2022/04/08 04:29:26;;;;;;;5.20;2.22;;;;;;;;;;5055372;28;20104;-70
2022/04/08 04:32:03;;;;;;;3.10;2.28;;;;;;;;;;5057453;28;20053;-71
2022/04/08 04:34:30;;;;;;;4.03;2.47;;;;;;;;;;5059508;28;20389;-70
2022/04/08 04:36:56;;;;;;;2.63;1.92;;;;;;;;;;5058489;28;20048;-70
2022/04/08 04:39:23;;;;;;;4.13;2.15;;;;;;;;;;5057213;28;20080;-70
2022/04/08 04:41:49;;;;;;;2.58;2.10;;;;;;;;;;5058711;28;20675;-70
2022/04/08 04:44:16;;;;;;;3.28;2.17;;;;;;;;;;5053942;28;20080;-71
2022/04/08 04:46:43;;;;;;;3.92;2.22;;;;;;;;;;5061280;28;20713;-71
2022/04/08 04:49:10;;;;;;;3.30;2.13;;;;;;;;;;5058726;28;20056;-71
2022/04/08 04:51:37;;;;;;;7.20;2.30;;;;;;;;;;5045886;28;20073;-71
2022/04/08 04:54:03;;;;;;;3.67;2.47;;;;;;;;;;5040159;28;20163;-71
2022/04/08 04:56:30;;;;;;;2.63;1.92;;;;;;;;;;5039160;28;20229;-71
2022/04/08 04:58:56;;;;;;;4.85;2.10;;;;;;;;;;5039561;28;20488;-71
2022/04/08 05:01:23;;;;;;;3.13;1.85;;;;;;;;;;5039538;28;20107;-71
2022/04/08 05:03:49;;;;;;;2.47;1.83;;;;;;;;;;5041849;28;20060;-70
2022/04/08 05:06:16;;;;;;;4.75;2.20;;;;;;;;;;5041683;28;20096;-71
2022/04/08 05:08:51;;;;;;;5.85;1.98;;;;;;;;;;5042776;28;20084;-71
2022/04/08 05:11:17;;;;;;;3.10;2.17;;;;;;;;;;5042760;28;20088;-70
2022/04/08 05:13:44;;;;;;;4.95;2.17;;;;;;;;;;5040481;28;20657;-71
2022/04/08 05:16:18;;;;;;;4.28;2.15;;;;;;;;;;5041520;28;20136;-71
2022/04/08 05:18:45;;;;;;;3.23;2.10;;;;;;;;;;5040780;28;20106;-70
2022/04/08 05:21:11;;;;;;;5.70;2.22;;;;;;;;;;5044017;28;20562;-71
2022/04/08 05:23:41;;;;;;;3.75;1.90;;;;;;;;;;5042091;28;20129;-70
2022/04/08 05:26:08;;;;;;;3.90;1.98;;;;;;;;;;5040984;28;20599;-70
2022/04/08 05:28:34;;;;;;;4.38;2.03;;;;;;;;;;5039085;28;20092;-70
2022/04/08 05:31:01;;;;;;;2.78;1.80;;;;;;;;;;5039597;28;20084;-70
2022/04/08 05:33:27;;;;;;;2.93;2.00;;;;;;;;;;5042011;28;20053;-70
2022/04/08 05:36:00;;;;;;;3.25;2.20;;;;;;;;;;5040362;28;20145;-70
2022/04/08 05:38:27;;;;;;;2.67;1.90;;;;;;;;;;5042040;28;20076;-70
2022/04/08 05:40:53;;;;;;;4.93;2.08;;;;;;;;;;5042895;28;20144;-70
2022/04/08 05:43:21;;;;;;;4.53;2.08;;;;;;;;;;5039665;28;20564;-70
2022/04/08 05:45:48;;;;;;;4.50;1.67;;;;;;;;;;5039746;28;20140;-70
2022/04/08 05:48:14;;;;;;;3.37;2.20;;;;;;;;;;5042537;28;20049;-70
2022/04/08 05:50:43;;;;;;;2.80;2.10;;;;;;;;;;5049533;28;20152;-70
2022/04/08 05:53:10;;;;;;;3.85;2.17;;;;;;;;;;5064824;28;20076;-70
2022/04/08 05:55:57;;;;;;;4.68;2.22;;;;;;;;;;5059007;28;20052;-70
2022/04/08 05:58:24;;;;;;;5.03;2.10;;;;;;;;;;5061214;28;20080;-70
2022/04/08 06:00:51;;;;;;;6.85;1.90;;;;;;;;;;5063776;28;20131;-70
2022/04/08 06:03:17;;;;;;;3.92;2.00;;;;;;;;;;5061011;28;20469;-70
2022/04/08 06:05:44;;;;;;;4.43;2.47;;;;;;;;;;5061680;28;20559;-70
2022/04/08 06:08:10;;;;;;;3.72;2.30;;;;;;;;;;5061388;28;20472;-70
2022/04/08 06:10:37;;;;;;;2.78;2.00;;;;;;;;;;5058381;28;20064;-70
2022/04/08 06:13:04;;;;;;;;;;;;;;;;;;5045351;28;20072;-70
2022/04/08 06:15:31;;;;;;;3.00;2.20;;;;;;;;;;5059548;28;19931;-70
2022/04/08 06:17:58;;;;;;;6.10;2.00;;;;;;;;;;5062566;28;20053;-70
2022/04/08 06:20:27;;;;;;;4.70;2.35;;;;;;;;;;5051978;28;20558;-70
2022/04/08 06:22:54;;;;;;;4.82;2.10;;;;;;;;;;5060575;28;20497;-70
2022/04/08 06:25:21;;;;;;;7.43;2.40;;;;;;;;;;5063027;28;20129;-69
2022/04/08 06:27:56;;;;;;;3.45;2.53;;;;;;;;;;5059918;28;20147;-69
2022/04/08 06:30:23;;;;;;;3.63;2.05;;;;;;;;;;5058919;28;20084;-69
2022/04/08 06:32:49;;;;;;;8.30;2.30;;;;;;;;;;5061132;28;20080;-69
2022/04/08 06:35:16;;;;;;;2.13;1.80;;;;;;;;;;5058837;28;20084;-69
2022/04/08 06:37:43;;;;;;;3.85;2.03;;;;;;;;;;5059354;28;20080;-69
2022/04/08 06:40:10;;;;;;;2.33;1.87;;;;;;;;;;5057980;28;20092;-69
2022/04/08 06:42:38;;;;;;;3.25;1.80;;;;;;;;;;5057107;28;20885;-69
2022/04/08 06:45:05;;;;;;;7.30;2.33;;;;;;;;;;5060472;28;20127;-69
2022/04/08 06:47:44;;;;;;;2.42;1.85;;;;;;;;;;5059823;28;20449;-69
2022/04/08 06:50:10;;;;;;;5.13;2.40;;;;;;;;;;5056767;28;20151;-69
2022/04/08 06:52:37;;;;;;;5.10;2.13;;;;;;;;;;5039984;28;20500;-68
2022/04/08 06:55:04;;;;;;;4.60;1.98;;;;;;;;;;5040922;28;20081;-69
2022/04/08 06:57:30;;;;;;;5.95;2.05;;;;;;;;;;5040491;28;20467;-69
2022/04/08 06:59:57;;;;;;;5.85;2.30;;;;;;;;;;5040749;28;20132;-69
2022/04/08 07:02:23;;;;;;;5.80;2.20;;;;;;;;;;5040191;28;20155;-69
2022/04/08 07:04:56;;;;;;;3.70;1.95;;;;;;;;;;5037948;28;20046;-69
2022/04/08 07:07:23;;;;;;;;;;;;;;;;;;5040287;28;20080;-69
2022/04/08 07:09:51;;;;;;;2.85;2.10;;;;;;;;;;5039498;28;19979;-69
2022/04/08 07:12:17;;;;;;;5.53;2.35;;;;;;;;;;5039952;28;20464;-69
2022/04/08 07:14:50;;;;;;;2.72;2.17;;;;;;;;;;5038507;28;20100;-69
2022/04/08 07:17:17;;;;;;;3.47;2.30;;;;;;;;;;5037032;28;20075;-69
2022/04/08 07:20:04;;;;;;;3.65;2.10;;;;;;;;;;5039191;28;20058;-69
2022/04/08 07:22:34;;;;;;;3.00;2.10;;;;;;;;;;5037814;28;20485;-69
2022/04/08 07:25:01;;;;;;;3.40;2.40;;;;;;;;;;5042151;28;20076;-69
2022/04/08 07:27:27;;;;;;;3.08;2.30;;;;;;;;;;5039285;28;20509;-69
2022/04/08 07:29:57;;;;;;;3.28;2.60;;;;;;;;;;5034406;28;20077;-69
2022/04/08 07:32:29;;;;;;;3.85;2.80;;;;;;;;;;5039830;28;20124;-69
2022/04/08 07:34:56;;;;;;;4.78;3.25;;;;;;;;;;5037376;28;20069;-70
2022/04/08 07:37:29;;;;;;;6.05;3.45;;;;;;;;;;5038003;28;20152;-72
2022/04/08 07:39:56;;;;;;;4.60;3.00;;;;;;;;;;5040321;28;20560;-69
2022/04/08 07:42:23;;;;;;;6.65;3.10;;;;;;;;;;5035795;28;20125;-69
2022/04/08 07:44:50;;;;;;;3.42;2.10;;;;;;;;;;5039285;28;20045;-69
2022/04/08 07:47:18;;;;;;;3.13;2.20;;;;;;;;;;5036814;28;20053;-69
2022/04/08 07:49:55;;;;;;;3.80;2.15;;;;;;;;;;5039770;28;20146;-67
2022/04/08 07:52:21;;;;;;;5.55;2.33;;;;;;;;;;5059361;28;20092;-68
2022/04/08 07:54:48;;;;;;;3.22;2.40;;;;;;;;;;5060640;28;20473;-68
2022/04/08 07:57:14;;;;;;;3.42;2.03;;;;;;;;;;5061288;28;20132;-68
2022/04/08 07:59:42;;;;;;;3.75;2.30;;;;;;;;;;5060958;28;20108;-67
2022/04/08 08:02:08;;;;;;;4.15;2.25;;;;;;;;;;5058574;28;20588;-67
2022/04/08 08:04:35;;;;;;;3.05;1.98;;;;;;;;;;5060944;28;20047;-66
2022/04/08 08:07:01;;;;;;;4.60;1.98;;;;;;;;;;5060460;28;20136;-66
2022/04/08 08:09:28;;;;;;;3.17;2.05;;;;;;;;;;5056732;28;20084;-66
2022/04/08 08:12:14;;;;;;;4.10;2.20;;;;;;;;;;5057386;28;20398;-66
2022/04/08 08:14:48;;;;;;;2.20;1.92;;;;;;;;;;5059690;28;20124;-66
2022/04/08 08:17:14;;;;;;;4.17;2.53;;;;;;;;;;5059609;28;20083;-66
2022/04/08 08:19:40;;;;;;;2.33;1.90;;;;;;;;;;5058911;28;20084;-66
2022/04/08 08:22:14;;;;;;;2.45;2.10;;;;;;;;;;5060628;28;20079;-66
2022/04/08 08:24:40;;;;;;;4.07;2.38;;;;;;;;;;5059659;28;20155;-66
2022/04/08 08:27:07;;;;;;;3.17;2.20;;;;;;;;;;5056862;28;20179;-66
2022/04/08 08:29:33;;;;;;;2.63;2.08;;;;;;;;;;5057303;28;20167;-66
2022/04/08 08:32:00;;;;;;;3.95;2.03;;;;;;;;;;5059534;28;20173;-66
2022/04/08 08:34:27;;;;;;;2.50;2.05;;;;;;;;;;5057956;28;20052;-66
2022/04/08 08:37:00;;;;;;;3.85;2.00;;;;;;;;;;5058187;28;20468;-66
2022/04/08 08:39:27;;;;;;;2.67;2.10;;;;;;;;;;5061164;28;20080;-66
2022/04/08 08:41:55;;;;;;;3.10;2.10;;;;;;;;;;5061055;28;20578;-66
2022/04/08 08:44:22;;;;;;;2.25;2.00;;;;;;;;;;5057169;28;20080;-66
2022/04/08 08:46:49;;;;;;;7.07;2.33;;;;;;;;;;5062840;28;20131;-66
2022/04/08 08:49:18;;;;;;;2.00;1.70;;;;;;;;;;5061277;28;20524;-66
2022/04/08 08:51:56;;;;;;;3.97;1.85;;;;;;;;;;5044209;28;20106;-66
2022/04/08 08:54:23;;;;;;;3.67;1.90;;;;;;;;;;5042797;28;20129;-66
2022/04/08 08:56:49;;;;;;;6.35;2.05;;;;;;;;;;5040841;28;20057;-65
2022/04/08 08:59:16;;;;;;;2.22;2.03;;;;;;;;;;5040829;28;20076;-66
2022/04/08 09:01:47;;;;;;;2.35;2.05;;;;;;;;;;5042251;28;20568;-66
2022/04/08 09:04:22;;;;;;;3.67;2.30;;;;;;;;;;5042874;28;20041;-66
2022/04/08 09:06:49;;;;;;;4.13;2.00;;;;;;;;;;5041638;28;20559;-65
2022/04/08 09:09:26;;;;;;;4.07;2.45;;;;;;;;;;5037231;28;20053;-66
2022/04/08 09:11:53;;;;;;;3.65;2.08;;;;;;;;;;5040453;28;20063;-66
2022/04/08 09:14:25;;;;;;;2.50;1.47;;;;;;;;;;5041681;28;20140;-65
2022/04/08 09:16:58;;;;;;;3.55;2.15;;;;;;;;;;5041831;28;20184;-65
2022/04/08 09:19:25;;;;;;;2.97;1.85;;;;;;;;;;5041537;28;20060;-65
2022/04/08 09:21:52;;;;;;;2.88;1.80;;;;;;;;;;5041570;28;20148;-66
2022/04/08 09:24:21;;;;;;;5.82;2.17;;;;;;;;;;5041820;28;20049;-66
2022/04/08 09:26:51;;;;;;;2.50;1.90;;;;;;;;;;5044690;28;20077;-65
2022/04/08 09:29:21;;;;;;;2.63;1.65;;;;;;;;;;5042730;28;20531;-65
2022/04/08 09:31:49;;;;;;;3.63;2.10;;;;;;;;;;5042740;28;20087;-65
2022/04/08 09:34:16;;;;;;;2.53;1.80;;;;;;;;;;5039294;28;20045;-65
2022/04/08 09:36:43;;;;;;;4.18;2.55;;;;;;;;;;5039044;28;20144;-65
2022/04/08 09:39:11;;;;;;;2.80;1.95;;;;;;;;;;5037768;28;20092;-65
2022/04/08 09:41:38;;;;;;;3.73;1.77;;;;;;;;;;5039681;28;20052;-65
2022/04/08 09:44:05;;;;;;;3.45;1.95;;;;;;;;;;5040336;28;20319;-65
2022/04/08 09:46:33;;;;;;;1.60;1.50;;;;;;;;;;5041593;28;20492;-65
2022/04/08 09:49:01;;;;;;;6.88;2.20;;;;;;;;;;5037547;28;20501;-65
2022/04/08 09:51:27;;;;;;;2.35;1.65;;;;;;;;;;5051443;28;20153;-65
2022/04/08 09:53:55;;;;;;;2.57;1.97;;;;;;;;;;5060605;28;20136;-65
2022/04/08 09:56:23;;;;;;;5.32;1.80;;;;;;;;;;5059049;28;20321;-65
2022/04/08 09:58:57;;;;;;;2.97;2.10;;;;;;;;;;5059789;28;20075;-65
2022/04/08 10:01:28;;;;;;;6.95;2.20;;;;;;;;;;5057601;28;20076;-65
2022/04/08 10:03:55;;;;;;;5.28;1.80;;;;;;;;;;5063356;28;20045;-66
2022/04/08 10:06:23;;;;;;;2.13;1.70;;;;;;;;;;5062445;28;20083;-66
2022/04/08 10:08:50;;;;;;;6.13;1.92;;;;;;;;;;5061064;28;20088;-66
2022/04/08 10:11:21;;;;;;;1.75;1.65;;;;;;;;;;5059495;28;20185;-66
2022/04/08 10:14:06;;;;;;;2.53;2.00;;;;;;;;;;5062675;28;20136;-67
2022/04/08 10:16:37;;;;;;;2.92;1.77;;;;;;;;;;5061165;28;20136;-67
2022/04/08 10:19:06;;;;;;;2.63;1.80;;;;;;;;;;5058365;28;20172;-68
2022/04/08 10:21:37;;;;;;;2.85;1.70;;;;;;;;;;5061011;28;20055;-67
2022/04/08 10:24:09;;;;;;;1.40;1.30;;;;;;;;;;5061211;28;20504;-67
2022/04/08 10:26:54;;;;;;;2.20;1.90;;;;;;;;;;5059360;28;20097;-68
2022/04/08 10:29:21;;;;;;;2.92;1.50;;;;;;;;;;5058859;28;20135;-68
2022/04/08 10:31:54;;;;;;;8.50;5.70;;;;;;;;;;5060384;28;20408;-68
2022/04/08 10:34:22;;;;;;;14.18;6.75;;;;;;;;;;5062587;28;20563;-68
2022/04/08 10:36:48;;;;;;;23.90;11.10;;;;;;;;;;5059150;28;20136;-67
2022/04/08 10:39:16;;;;;;;;;;;;;;;;;;5060143;28;20049;-67
2022/04/08 10:41:58;;;;;;;2.72;2.10;;;;;;;;;;5060493;28;19974;-69
2022/04/08 10:44:31;;;;;;;15.35;6.85;;;;;;;;;;5060067;28;20054;-67
2022/04/08 10:47:00;;;;;;;2.00;1.65;;;;;;;;;;5058518;28;20113;-67
2022/04/08 10:49:28;;;;;;;9.05;5.70;;;;;;;;;;5061192;28;20095;-66
2022/04/08 10:51:54;;;;;;;5.63;3.83;;;;;;;;;;5056024;28;20551;-66
2022/04/08 10:54:32;;;;;;;2.47;1.80;;;;;;;;;;5057924;28;20091;-66
2022/04/08 10:56:59;;;;;;;3.25;1.80;;;;;;;;;;5057262;28;21000;-66
2022/04/08 10:59:26;;;;;;;2.73;1.80;;;;;;;;;;5063060;28;20544;-66
2022/04/08 11:01:56;;;;;;;2.55;1.65;;;;;;;;;;5056358;28;20135;-66
2022/04/08 11:04:26;;;;;;;5.60;3.88;;;;;;;;;;5056697;28;20496;-67
2022/04/08 11:06:52;;;;;;;5.53;1.65;;;;;;;;;;5056845;28;20131;-66
2022/04/08 11:09:19;;;;;;;5.35;2.13;;;;;;;;;;5057938;28;20103;-66
2022/04/08 11:11:52;;;;;;;2.00;1.40;;;;;;;;;;5057794;28;20136;-66
2022/04/08 11:14:19;;;;;;;4.30;1.70;;;;;;;;;;5061131;28;20049;-66
2022/04/08 11:16:46;;;;;;;1.92;1.70;;;;;;;;;;5059574;28;20128;-66
2022/04/08 11:19:20;;;;;;;2.50;1.73;;;;;;;;;;5059215;28;20048;-66
2022/04/08 11:21:53;;;;;;;1.88;1.33;;;;;;;;;;5059208;28;20045;-66
2022/04/08 11:24:20;;;;;;;1.50;1.30;;;;;;;;;;5058775;28;20155;-66
2022/04/08 11:26:48;;;;;;;2.45;1.63;;;;;;;;;;5056986;28;20133;-66
2022/04/08 11:29:17;;;;;;;2.60;1.77;;;;;;;;;;5060931;28;20047;-66
2022/04/08 11:31:44;;;;;;;6.18;2.60;;;;;;;;;;5057604;28;20116;-66
2022/04/08 11:34:12;;;;;;;4.35;1.63;;;;;;;;;;5058421;28;20393;-66
2022/04/08 11:36:39;;;;;;;4.00;1.70;;;;;;;;;;5056576;28;20164;-67
2022/04/08 11:39:07;;;;;;;4.30;2.30;;;;;;;;;;5059017;28;20080;-67
2022/04/08 11:41:34;;;;;;;2.25;1.52;;;;;;;;;;5057983;28;20087;-67
2022/04/08 11:44:01;;;;;;;;;;;;;;;;;;5061918;28;20110;-67
2022/04/08 11:46:28;;;;;;;1.60;1.30;;;;;;;;;;5059128;28;20016;-68
2022/04/08 11:48:55;;;;;;;2.43;1.50;;;;;;;;;;5058941;28;20134;-67
2022/04/08 11:51:21;;;;;;;2.38;1.85;;;;;;;;;;5040160;28;20144;-67
2022/04/08 11:54:00;;;;;;;2.38;1.55;;;;;;;;;;5044787;28;20088;-68
2022/04/08 11:56:27;;;;;;;4.82;1.70;;;;;;;;;;5044241;28;20401;-68
2022/04/08 11:58:55;;;;;;;2.47;1.40;;;;;;;;;;5049080;28;20080;-68
2022/04/08 12:01:22;;;;;;;5.78;1.75;;;;;;;;;;5048441;28;20129;-68
2022/04/08 12:03:50;;;;;;;7.25;1.90;;;;;;;;;;5049277;28;20063;-68
2022/04/08 12:06:18;;;;;;;6.00;2.50;;;;;;;;;;5051406;28;20095;-68
2022/04/08 12:08:47;;;;;;;3.10;2.20;;;;;;;;;;5047813;28;20080;-68
2022/04/08 12:11:15;;;;;;;5.72;2.63;;;;;;;;;;5051109;28;20128;-68
2022/04/08 12:13:42;;;;;;;5.40;2.10;;;;;;;;;;5045170;28;20076;-68
2022/04/08 12:16:12;;;;;;;5.55;2.58;;;;;;;;;;5047074;28;20473;-69
2022/04/08 12:18:48;;;;;;;7.10;1.70;;;;;;;;;;5043322;28;20053;-68
2022/04/08 12:21:20;;;;;;;4.50;2.25;;;;;;;;;;5046924;28;20081;-68
2022/04/08 12:23:47;;;;;;;6.45;3.13;;;;;;;;;;5045017;28;20144;-68
2022/04/08 12:26:14;;;;;;;1.65;1.30;;;;;;;;;;5044785;28;20059;-68
2022/04/08 12:28:41;;;;;;;1.67;1.20;;;;;;;;;;5047225;28;20131;-68
2022/04/08 12:31:17;;;;;;;1.83;1.65;;;;;;;;;;5043569;28;20102;-68
2022/04/08 12:33:43;;;;;;;4.00;1.48;;;;;;;;;;5041648;28;20087;-68
2022/04/08 12:36:10;;;;;;;3.50;1.40;;;;;;;;;;5031397;28;20159;-68
2022/04/08 12:38:40;;;;;;;3.80;1.70;;;;;;;;;;5048788;28;20506;-68
2022/04/08 12:41:07;;;;;;;1.60;1.10;;;;;;;;;;5043593;28;20077;-68
2022/04/08 12:43:33;;;;;;;3.38;1.40;;;;;;;;;;5047818;28;20092;-68
2022/04/08 12:46:00;;;;;;;2.45;1.45;;;;;;;;;;5047489;28;20132;-68
2022/04/08 12:48:27;;;;;;;4.60;1.92;;;;;;;;;;5048065;28;20061;-68
2022/04/08 12:50:56;;;;;;;5.07;1.20;;;;;;;;;;5046008;28;20136;-68
2022/04/08 12:53:22;;;;;;;4.38;1.70;;;;;;;;;;5037346;28;20132;-68
2022/04/08 12:55:50;;;;;;;5.28;1.50;;;;;;;;;;5027410;28;20119;-68
2022/04/08 12:58:16;;;;;;;2.35;1.35;;;;;;;;;;5038118;28;20140;-68
2022/04/08 13:00:43;;;;;;;2.33;1.38;;;;;;;;;;5036157;28;20132;-69
2022/04/08 13:03:12;;;;;;;3.75;1.30;;;;;;;;;;5036503;28;20092;-68
2022/04/08 13:05:38;;;;;;;1.30;1.20;;;;;;;;;;5039834;28;20144;-68
2022/04/08 13:08:05;;;;;;;4.03;1.30;;;;;;;;;;5035897;28;20164;-68
2022/04/08 13:10:31;;;;;;;2.58;1.30;;;;;;;;;;5037277;28;20120;-68
2022/04/08 13:13:04;;;;;;;3.33;2.00;;;;;;;;;;5038164;28;20061;-68
2022/04/08 13:15:34;;;;;;;1.50;1.05;;;;;;;;;;5036120;28;20057;-68
2022/04/08 13:18:01;;;;;;;1.52;1.13;;;;;;;;;;5040126;28;20136;-68
2022/04/08 13:20:28;;;;;;;2.80;1.02;;;;;;;;;;5037927;28;20073;-68
2022/04/08 13:22:55;;;;;;;5.53;1.98;;;;;;;;;;5040319;28;20732;-68
2022/04/08 13:25:23;;;;;;;2.97;1.20;;;;;;;;;;5042421;28;20133;-68
2022/04/08 13:27:53;;;;;;;2.65;1.27;;;;;;;;;;5039866;28;20104;-68
2022/04/08 13:30:21;;;;;;;4.78;1.77;;;;;;;;;;5043591;28;20054;-69
2022/04/08 13:32:47;;;;;;;1.45;1.10;;;;;;;;;;5042321;28;20053;-68
2022/04/08 13:35:14;;;;;;;1.30;1.17;;;;;;;;;;5041682;28;20133;-68
2022/04/08 13:37:41;;;;;;;1.50;1.07;;;;;;;;;;5026856;28;20120;-69
2022/04/08 13:40:07;;;;;;;6.00;1.30;;;;;;;;;;5039432;28;20049;-68
2022/04/08 13:42:34;;;;;;;1.30;1.10;;;;;;;;;;5043690;28;20342;-69
2022/04/08 13:45:01;;;;;;;1.40;1.02;;;;;;;;;;5044690;28;20050;-68
2022/04/08 13:47:27;;;;;;;2.00;1.20;;;;;;;;;;5043267;28;20140;-68
2022/04/08 13:49:53;;;;;;;1.67;1.10;;;;;;;;;;5040442;28;20104;-69
2022/04/08 13:52:20;;;;;;;1.20;1.00;;;;;;;;;;5056659;28;20152;-69
2022/04/08 13:54:47;;;;;;;2.33;1.10;;;;;;;;;;5063519;28;20095;-69
2022/04/08 13:57:14;;;;;;;;;;;;;;;;;;5062017;28;20089;-69
2022/04/08 13:59:41;;;;;;;1.10;1.00;;;;;;;;;;5061882;28;20031;-69
2022/04/08 14:02:08;;;;;;;3.65;1.15;;;;;;;;;;5058107;28;20141;-69
2022/04/08 14:04:35;;;;;;;1.05;0.95;;;;;;;;;;5059981;28;20052;-69
2022/04/08 14:07:02;;;;;;;1.20;1.10;;;;;;;;;;5059017;28;20468;-69
2022/04/08 14:09:28;;;;;;;2.30;1.38;;;;;;;;;;5059057;28;20059;-69
2022/04/08 14:12:02;;;;;;;1.83;0.95;;;;;;;;;;5062109;28;20128;-69
2022/04/08 14:14:28;;;;;;;1.02;0.82;;;;;;;;;;5060536;28;20052;-70
2022/04/08 14:16:55;;;;;;;1.63;0.90;;;;;;;;;;5056921;28;20152;-70
2022/04/08 14:19:21;;;;;;;2.25;1.00;;;;;;;;;;5058409;28;20556;-69
2022/04/08 14:21:48;;;;;;;1.52;0.98;;;;;;;;;;5055016;28;20127;-70
2022/04/08 14:24:15;;;;;;;4.80;0.88;;;;;;;;;;5055516;28;20059;-70
2022/04/08 14:26:42;;;;;;;1.47;0.90;;;;;;;;;;5061225;28;20495;-70
2022/04/08 14:29:08;;;;;;;4.38;0.90;;;;;;;;;;5059421;28;20060;-70
2022/04/08 14:31:36;;;;;;;4.05;0.95;;;;;;;;;;5048512;28;20110;-70
2022/04/08 14:34:02;;;;;;;1.52;1.20;;;;;;;;;;5056104;28;20070;-70
2022/04/08 14:36:29;;;;;;;1.25;0.93;;;;;;;;;;5055721;28;20056;-70
2022/04/08 14:38:55;;;;;;;3.67;1.33;;;;;;;;;;5059566;28;20048;-70
2022/04/08 14:41:22;;;;;;;4.40;1.00;;;;;;;;;;5058785;28;20902;-70
2022/04/08 14:43:49;;;;;;;2.67;1.57;;;;;;;;;;5059192;28;20133;-70
2022/04/08 14:46:18;;;;;;;1.25;0.82;;;;;;;;;;5057065;28;20052;-70
2022/04/08 14:48:47;;;;;;;1.75;1.02;;;;;;;;;;5060231;28;20136;-70
2022/04/08 14:51:19;;;;;;;2.72;1.20;;;;;;;;;;5058526;28;20121;-71